Time;durP1;ratioP1;P1;durP2;ratioP2;P2;SDS_P1;SDS_P2;PMS_P1;PMS_P2;Temp;Humidity;BMP_temperature;BMP_pressure;BME280_temperature;BME280_humidity;BME280_pressure;Samples;Min_cycle;Max_cycle;Signal;HPM_P1;HPM_P2
2022/03/09 00:00:42;;;;;;;14.80;8.70;;;;;;;-2.01;100.00;95802.25;5055207;28;20193;-46
2022/03/09 00:03:08;;;;;;;17.37;9.00;;;;;;;-2.00;100.00;95809.19;5055678;28;20316;-47
2022/03/09 00:05:33;;;;;;;15.27;9.37;;;;;;;-2.05;100.00;95817.34;5055706;28;20192;-49
2022/03/09 00:07:59;;;;;;;15.77;9.37;;;;;;;-2.06;100.00;95813.09;5055603;28;20188;-46
2022/03/09 00:10:24;;;;;;;17.70;10.27;;;;;;;-2.08;100.00;95812.63;5055424;28;20242;-47
2022/03/09 00:12:49;;;;;;;21.50;12.23;;;;;;;-2.09;100.00;95819.88;5055448;28;20206;-51
2022/03/09 00:15:15;;;;;;;36.70;18.10;;;;;;;-2.11;100.00;95818.59;5055132;28;20218;-57
2022/03/09 00:17:40;;;;;;;18.80;10.53;;;;;;;-2.14;100.00;95819.22;5055225;28;20182;-63
2022/03/09 00:20:06;;;;;;;14.73;8.83;;;;;;;-2.17;100.00;95825.19;5055413;28;20216;-62
2022/03/09 00:22:32;;;;;;;14.70;8.70;;;;;;;-2.19;100.00;95824.72;5054668;28;20196;-62
2022/03/09 00:24:57;;;;;;;15.20;9.00;;;;;;;-2.21;100.00;95818.91;5055202;28;20189;-62
2022/03/09 00:27:23;;;;;;;14.83;9.30;;;;;;;-2.21;100.00;95829.59;5055028;28;20205;-62
2022/03/09 00:29:48;;;;;;;15.43;9.03;;;;;;;-2.22;100.00;95817.31;5054966;28;20202;-62
2022/03/09 00:32:14;;;;;;;16.40;9.67;;;;;;;-2.25;100.00;95823.28;5054988;28;20193;-63
2022/03/09 00:34:40;;;;;;;16.83;9.67;;;;;;;-2.28;100.00;95826.59;5054825;28;20224;-54
2022/03/09 00:37:05;;;;;;;13.33;8.37;;;;;;;-2.33;100.00;95821.38;5054758;28;20272;-57
2022/03/09 00:39:30;;;;;;;13.93;8.80;;;;;;;-2.35;100.00;95823.56;5054904;28;20225;-57
2022/03/09 00:41:56;;;;;;;16.27;9.27;;;;;;;-2.36;100.00;95827.34;5053872;28;20190;-54
2022/03/09 00:44:21;;;;;;;15.00;8.73;;;;;;;-2.38;100.00;95832.22;5055187;28;20186;-57
2022/03/09 00:46:46;;;;;;;14.50;8.93;;;;;;;-2.41;100.00;95827.50;5054813;28;20267;-57
2022/03/09 00:49:12;;;;;;;18.17;8.80;;;;;;;-2.42;100.00;95833.94;5054594;28;20202;-57
2022/03/09 00:51:37;;;;;;;16.40;9.03;;;;;;;-2.44;100.00;95825.44;5054691;28;20188;-57
2022/03/09 00:54:03;;;;;;;15.83;9.47;;;;;;;-2.46;100.00;95827.63;5054397;28;20186;-62
2022/03/09 00:56:28;;;;;;;15.37;9.67;;;;;;;-2.48;100.00;95827.16;5054726;28;20223;-63
2022/03/09 00:58:53;;;;;;;16.33;9.27;;;;;;;-2.49;100.00;95836.25;5055295;28;20189;-63
2022/03/09 01:01:19;;;;;;;17.00;8.50;;;;;;;-2.50;100.00;95832.03;5054504;28;20190;-61
2022/03/09 01:03:44;;;;;;;15.67;8.63;;;;;;;-2.50;100.00;95827.47;5054442;28;20296;-61
2022/03/09 01:06:10;;;;;;;16.07;8.80;;;;;;;-2.50;100.00;95826.69;5054604;28;20182;-62
2022/03/09 01:08:35;;;;;;;19.33;8.83;;;;;;;-2.50;100.00;95822.13;5054320;28;20189;-62
2022/03/09 01:11:00;;;;;;;15.63;9.30;;;;;;;-2.51;100.00;95823.25;5054922;28;20217;-58
2022/03/09 01:13:26;;;;;;;14.03;8.83;;;;;;;-2.52;100.00;95818.19;5054489;28;20188;-57
2022/03/09 01:15:53;;;;;;;15.30;8.93;;;;;;;-2.54;100.00;95815.84;5054395;28;20284;-56
2022/03/09 01:18:19;;;;;;;16.57;8.97;;;;;;;-2.57;100.00;95821.00;5054699;28;20182;-58
2022/03/09 01:20:44;;;;;;;18.13;9.37;;;;;;;-2.64;100.00;95809.97;5054486;28;20201;-58
2022/03/09 01:23:09;;;;;;;15.93;9.40;;;;;;;-2.65;100.00;95813.75;5054058;28;20186;-57
2022/03/09 01:25:34;;;;;;;17.67;9.87;;;;;;;-2.68;100.00;95811.69;5053945;28;20323;-58
2022/03/09 01:28:00;;;;;;;17.67;9.87;;;;;;;-2.74;100.00;95805.69;5054068;28;20182;-56
2022/03/09 01:30:25;;;;;;;12.50;8.50;;;;;;;-2.77;100.00;95800.19;5054613;28;20240;-55
2022/03/09 01:32:56;;;;;;;16.43;8.97;;;;;;;-2.85;100.00;95798.28;5054419;28;20204;-62
2022/03/09 01:35:21;;;;;;;15.80;8.63;;;;;;;-2.92;100.00;95798.69;5053904;28;20263;-61
2022/03/09 01:37:47;;;;;;;15.50;9.30;;;;;;;-2.94;100.00;95789.44;5054343;28;20240;-62
2022/03/09 01:40:13;;;;;;;14.50;8.80;;;;;;;-2.99;100.00;95794.91;5054425;28;20194;-62
2022/03/09 01:42:39;;;;;;;14.03;8.47;;;;;;;-3.03;100.00;95794.72;5054233;28;20193;-62
2022/03/09 01:45:07;;;;;;;17.03;8.90;;;;;;;-3.09;100.00;95795.16;5054074;28;20194;-63
2022/03/09 01:47:33;;;;;;;13.47;8.20;;;;;;;-3.18;100.00;95799.69;5053985;28;20189;-61
2022/03/09 01:49:58;;;;;;;12.97;8.50;;;;;;;-3.17;100.00;95806.59;5053678;28;20213;-57
2022/03/09 01:52:25;;;;;;;18.60;10.70;;;;;;;-3.16;100.00;95797.50;5053793;28;20281;-59
2022/03/09 01:54:52;;;;;;;13.83;8.77;;;;;;;-3.17;100.00;95794.03;5053759;28;20264;-58
2022/03/09 01:57:19;;;;;;;13.63;7.87;;;;;;;-3.20;100.00;95791.19;5054279;28;20193;-57
2022/03/09 01:59:48;;;;;;;13.07;7.90;;;;;;;-3.24;100.00;95792.91;5053629;28;20186;-58
2022/03/09 02:02:13;;;;;;;18.13;8.30;;;;;;;-3.29;100.00;95787.69;5053472;28;20241;-58
2022/03/09 02:04:38;;;;;;;14.03;7.93;;;;;;;-3.32;100.00;95801.66;5053448;28;20228;-46
2022/03/09 02:07:08;;;;;;;11.93;8.20;;;;;;;-3.35;100.00;95794.25;5053779;28;20190;-50
2022/03/09 02:09:44;;;;;;;13.73;8.20;;;;;;;-3.39;100.00;95787.94;5053833;28;20212;-58
2022/03/09 02:12:17;;;;;;;12.97;8.40;;;;;;;-3.46;100.00;95791.84;5053958;28;20181;-58
2022/03/09 02:14:51;;;;;;;13.20;8.47;;;;;;;-3.50;100.00;95793.53;5053810;28;20185;-58
2022/03/09 02:17:19;;;;;;;14.37;8.03;;;;;;;-3.53;100.00;95796.81;5053671;28;20211;-59
2022/03/09 02:19:47;;;;;;;13.47;8.57;;;;;;;-3.55;100.00;95796.34;5053666;28;20243;-58
2022/03/09 02:22:41;;;;;;;14.57;8.50;;;;;;;-3.55;100.00;95801.66;5053290;28;20273;-58
2022/03/09 02:25:10;;;;;;;14.20;8.30;;;;;;;-3.57;100.00;95793.16;5053322;28;20289;-57
2022/03/09 02:27:36;;;;;;;13.77;8.47;;;;;;;-3.59;100.00;95799.91;5053836;28;20194;-58
2022/03/09 02:30:01;;;;;;;16.20;9.23;;;;;;;-3.62;100.00;95795.97;5053381;28;20205;-57
2022/03/09 02:32:27;;;;;;;15.17;8.90;;;;;;;-3.64;100.00;95798.16;5053205;28;20271;-58
2022/03/09 02:34:52;;;;;;;13.87;9.33;;;;;;;-3.66;100.00;95800.34;5053053;28;20197;-57
2022/03/09 02:37:18;;;;;;;14.60;8.63;;;;;;;-3.68;100.00;95794.50;5053161;28;20247;-58
2022/03/09 02:39:43;;;;;;;13.67;8.77;;;;;;;-3.67;100.00;95788.06;5053091;28;20189;-58
2022/03/09 02:42:09;;;;;;;15.13;9.33;;;;;;;-3.69;100.00;95795.59;5052919;28;20182;-59
2022/03/09 02:44:35;;;;;;;17.63;9.03;;;;;;;-3.71;100.00;95786.34;5053099;28;20193;-58
2022/03/09 02:47:00;;;;;;;16.20;9.20;;;;;;;-3.69;100.00;95789.47;5052837;28;20526;-57
2022/03/09 02:49:26;;;;;;;13.07;7.90;;;;;;;-3.71;100.00;95803.09;5052848;28;20217;-57
2022/03/09 02:51:52;;;;;;;16.97;8.67;;;;;;;-3.71;100.00;95803.09;5053380;28;20220;-57
2022/03/09 02:54:18;;;;;;;15.93;8.97;;;;;;;-3.72;100.00;95801.53;5052761;28;20193;-58
2022/03/09 02:56:43;;;;;;;17.80;9.70;;;;;;;-3.78;100.00;95799.31;5052565;28;20226;-57
2022/03/09 02:59:08;;;;;;;15.10;8.43;;;;;;;-3.87;100.00;95787.78;5052587;28;20280;-57
2022/03/09 03:01:34;;;;;;;15.93;8.57;;;;;;;-3.92;100.00;95799.38;5052814;28;20232;-58
2022/03/09 03:03:59;;;;;;;17.50;8.70;;;;;;;-3.94;100.00;95798.88;5052508;28;20189;-60
2022/03/09 03:06:25;;;;;;;15.17;9.27;;;;;;;-3.95;100.00;95791.16;5052107;28;20198;-60
2022/03/09 03:08:50;;;;;;;15.40;8.70;;;;;;;-4.00;100.00;95792.06;5052549;28;20185;-61
2022/03/09 03:11:16;;;;;;;17.63;9.00;;;;;;;-4.02;100.00;95796.91;5052489;28;20289;-60
2022/03/09 03:13:41;;;;;;;13.57;8.00;;;;;;;-4.04;100.00;95785.00;5053046;28;20186;-61
2022/03/09 03:16:08;;;;;;;16.17;8.87;;;;;;;-4.06;100.00;95795.16;5052464;28;20188;-60
2022/03/09 03:18:34;;;;;;;16.03;9.10;;;;;;;-4.06;100.00;95795.94;5052624;28;20186;-60
2022/03/09 03:21:00;;;;;;;14.57;8.30;;;;;;;-4.05;100.00;95794.84;5052056;28;20562;-55
2022/03/09 03:23:27;;;;;;;15.37;9.10;;;;;;;-4.06;100.00;95798.63;5052580;28;20197;-53
2022/03/09 03:25:54;;;;;;;13.23;7.70;;;;;;;-4.05;100.00;95792.19;5052245;28;20235;-52
2022/03/09 03:28:21;;;;;;;13.30;8.77;;;;;;;-4.03;100.00;95794.56;5052440;28;20232;-53
2022/03/09 03:30:47;;;;;;;14.20;8.33;;;;;;;-4.01;100.00;95801.16;5052558;28;20272;-54
2022/03/09 03:33:13;;;;;;;16.13;10.10;;;;;;;-4.02;100.00;95801.44;5052674;28;20269;-54
2022/03/09 03:35:39;;;;;;;17.63;9.50;;;;;;;-4.02;100.00;95823.59;5052321;28;20196;-54
2022/03/09 03:38:05;;;;;;;12.43;7.23;;;;;;;-4.03;100.00;95816.69;5052651;28;20288;-58
2022/03/09 03:40:30;;;;;;;14.43;8.40;;;;;;;-4.01;100.00;95819.81;5052337;28;20189;-58
2022/03/09 03:42:56;;;;;;;12.70;8.10;;;;;;;-4.01;100.00;95829.69;5052233;28;20232;-59
2022/03/09 03:45:21;;;;;;;13.13;7.93;;;;;;;-3.99;100.00;95838.97;5052118;28;20201;-59
2022/03/09 03:47:47;;;;;;;13.83;7.87;;;;;;;-4.00;100.00;95840.03;5052314;28;20196;-59
2022/03/09 03:50:12;;;;;;;12.20;7.27;;;;;;;-4.04;100.00;95836.41;5052432;28;20260;-58
2022/03/09 03:52:38;;;;;;;16.27;8.43;;;;;;;-4.05;100.00;95834.03;5052114;28;20190;-58
2022/03/09 03:55:03;;;;;;;13.07;8.30;;;;;;;-4.07;100.00;95830.91;5051741;28;20190;-60
2022/03/09 03:57:29;;;;;;;16.33;8.50;;;;;;;-4.11;100.00;95836.03;5052072;28;20192;-53
2022/03/09 03:59:54;;;;;;;15.17;8.83;;;;;;;-4.15;100.00;95835.06;5051925;28;20194;-53
2022/03/09 04:02:19;;;;;;;16.10;8.60;;;;;;;-4.16;100.00;95844.13;5051913;28;20205;-51
2022/03/09 04:04:45;;;;;;;14.30;8.50;;;;;;;-4.15;100.00;95845.72;5051948;28;20197;-52
2022/03/09 04:07:10;;;;;;;14.47;7.80;;;;;;;-4.12;100.00;95850.44;5051831;28;20200;-51
2022/03/09 04:09:36;;;;;;;12.97;8.10;;;;;;;-4.08;100.00;95848.75;5051854;28;20231;-52
2022/03/09 04:12:01;;;;;;;14.77;8.20;;;;;;;-4.05;100.00;95855.38;5051870;28;20193;-52
2022/03/09 04:14:26;;;;;;;14.27;8.60;;;;;;;-4.09;100.00;95854.38;5051815;28;20213;-57
2022/03/09 04:16:52;;;;;;;15.23;8.50;;;;;;;-4.12;100.00;95866.44;5052000;28;20194;-58
2022/03/09 04:19:17;;;;;;;15.33;8.07;;;;;;;-4.12;100.00;95861.09;5056347;28;20177;-58
2022/03/09 04:21:43;;;;;;;16.57;7.80;;;;;;;-4.11;100.00;95856.56;5055223;28;20221;-59
2022/03/09 04:24:08;;;;;;;13.47;8.27;;;;;;;-4.08;100.00;95866.66;5055171;28;20188;-58
2022/03/09 04:26:34;;;;;;;12.80;7.97;;;;;;;-4.06;100.00;95859.94;5055193;28;20193;-58
2022/03/09 04:28:59;;;;;;;14.80;7.67;;;;;;;-4.07;100.00;95874.31;5055238;28;20277;-58
2022/03/09 04:31:25;;;;;;;11.60;7.17;;;;;;;-4.12;100.00;95871.78;5055038;28;20228;-61
2022/03/09 04:33:51;;;;;;;14.47;7.83;;;;;;;-4.16;100.00;95870.78;5055042;28;20177;-60
2022/03/09 04:36:16;;;;;;;13.50;7.47;;;;;;;-4.14;100.00;95868.63;5054869;28;20174;-46
2022/03/09 04:38:41;;;;;;;12.83;7.87;;;;;;;-4.14;100.00;95859.84;5055171;28;20192;-45
2022/03/09 04:41:07;;;;;;;14.07;7.87;;;;;;;-4.14;100.00;95868.63;5055227;28;20260;-46
2022/03/09 04:43:32;;;;;;;12.80;7.50;;;;;;;-4.13;100.00;95870.19;5055015;28;20181;-46
2022/03/09 04:45:58;;;;;;;11.90;7.50;;;;;;;-4.14;100.00;95873.97;5054814;28;20208;-46
2022/03/09 04:48:23;;;;;;;13.17;7.63;;;;;;;-4.18;100.00;95867.63;5054704;28;20181;-47
2022/03/09 04:50:49;;;;;;;13.70;7.13;;;;;;;-4.21;100.00;95894.09;5054819;28;20197;-54
2022/03/09 04:53:14;;;;;;;15.00;8.47;;;;;;;-4.25;100.00;95888.59;5054873;28;20351;-46
2022/03/09 04:55:39;;;;;;;12.60;8.00;;;;;;;-4.31;100.00;95884.44;5054877;28;20192;-47
2022/03/09 04:58:05;;;;;;;13.07;7.97;;;;;;;-4.36;100.00;95887.22;5054606;28;20189;-46
2022/03/09 05:00:30;;;;;;;18.87;8.17;;;;;;;-4.41;100.00;95895.28;5054567;28;20193;-46
2022/03/09 05:02:55;;;;;;;12.37;7.37;;;;;;;-4.44;100.00;95895.09;5054533;28;20206;-46
2022/03/09 05:05:21;;;;;;;12.63;7.47;;;;;;;-4.50;100.00;95891.75;5054486;28;20260;-45
2022/03/09 05:07:46;;;;;;;14.23;7.93;;;;;;;-4.52;100.00;95888.56;5054675;28;20190;-46
2022/03/09 05:10:12;;;;;;;12.73;7.20;;;;;;;-4.57;100.00;95896.69;5054787;28;20213;-45
2022/03/09 05:12:38;;;;;;;13.13;7.53;;;;;;;-4.60;100.00;95899.94;5054623;28;20250;-52
2022/03/09 05:15:04;;;;;;;15.10;7.53;;;;;;;-4.62;100.00;95904.75;5054667;28;20213;-53
2022/03/09 05:17:29;;;;;;;15.20;7.40;;;;;;;-4.62;100.00;95898.66;5054910;28;20232;-53
2022/03/09 05:19:55;;;;;;;13.63;7.20;;;;;;;-4.65;100.00;95905.34;5054795;28;20193;-55
2022/03/09 05:22:20;;;;;;;12.67;7.50;;;;;;;-4.65;100.00;95905.34;5054052;28;20190;-55
2022/03/09 05:24:46;;;;;;;12.03;7.60;;;;;;;-4.66;100.00;95909.09;5054107;28;20224;-55
2022/03/09 05:27:11;;;;;;;12.10;7.23;;;;;;;-4.63;100.00;95918.38;5054754;28;20182;-52
2022/03/09 05:29:36;;;;;;;14.47;7.30;;;;;;;-4.63;100.00;95916.47;5053981;28;20225;-59
2022/03/09 05:32:02;;;;;;;13.03;7.77;;;;;;;-4.60;100.00;95899.13;5053895;28;20182;-60
2022/03/09 05:34:27;;;;;;;12.03;7.47;;;;;;;-4.57;100.00;95912.66;5054024;28;20178;-59
2022/03/09 05:36:53;;;;;;;14.97;7.40;;;;;;;-4.55;100.00;95907.81;5054190;28;20267;-59
2022/03/09 05:39:19;;;;;;;13.77;7.50;;;;;;;-4.56;100.00;95914.22;5053972;28;20266;-59
2022/03/09 05:41:44;;;;;;;13.43;7.43;;;;;;;-4.56;100.00;95918.75;5053751;28;20185;-59
2022/03/09 05:44:10;;;;;;;14.20;7.20;;;;;;;-4.60;100.00;95915.91;5053963;28;20178;-59
2022/03/09 05:46:35;;;;;;;14.90;7.40;;;;;;;-4.60;100.00;95917.75;5053555;28;20185;-46
2022/03/09 05:49:02;;;;;;;14.37;7.57;;;;;;;-4.59;100.00;95909.47;5053657;28;20184;-46
2022/03/09 05:51:27;;;;;;;12.87;7.67;;;;;;;-4.47;100.00;95912.47;5054254;28;20193;-45
2022/03/09 05:53:53;;;;;;;11.27;7.03;;;;;;;-4.27;100.00;95912.06;5054073;28;20182;-46
2022/03/09 05:56:18;;;;;;;11.27;7.20;;;;;;;-3.90;100.00;95909.16;5053615;28;20270;-45
2022/03/09 05:58:44;;;;;;;13.23;7.23;;;;;;;-3.36;100.00;95915.44;5054644;28;20178;-45
2022/03/09 06:01:09;;;;;;;14.03;7.30;;;;;;;-2.57;100.00;95911.84;5053678;28;20307;-44
2022/03/09 06:03:34;;;;;;;13.53;7.30;;;;;;;-1.71;100.00;95914.50;5053448;28;20288;-60
2022/03/09 06:06:00;;;;;;;13.40;7.53;;;;;;;-0.74;100.00;95909.28;5053238;28;20182;-61
2022/03/09 06:08:25;;;;;;;11.83;8.17;;;;;;;0.25;100.00;95919.47;5053677;28;20301;-61
2022/03/09 06:10:52;;;;;;;11.67;7.07;;;;;;;1.09;100.00;95911.13;5053458;28;20226;-62
2022/03/09 06:13:17;;;;;;;12.63;7.93;;;;;;;1.62;100.00;95909.16;5053447;28;20188;-61
2022/03/09 06:15:44;;;;;;;13.77;7.67;;;;;;;1.98;99.65;95908.41;5053788;28;20186;-61
2022/03/09 06:18:10;;;;;;;11.60;7.57;;;;;;;2.37;93.15;95905.81;5053066;28;20186;-61
2022/03/09 06:20:36;;;;;;;12.03;7.17;;;;;;;2.84;87.04;95909.56;5053322;28;20204;-61
2022/03/09 06:23:03;;;;;;;13.20;8.43;;;;;;;3.28;83.23;95911.22;5053823;28;20178;-60
2022/03/09 06:25:28;;;;;;;14.23;10.57;;;;;;;3.45;80.29;95912.84;5053645;28;20191;-57
2022/03/09 06:27:54;;;;;;;17.30;9.63;;;;;;;3.50;77.90;95899.09;5052956;28;20210;-57
2022/03/09 06:30:20;;;;;;;14.63;8.93;;;;;;;3.79;76.61;95901.38;5053104;28;20224;-57
2022/03/09 06:32:49;;;;;;;14.17;8.60;;;;;;;4.11;74.78;95896.81;5052896;28;20200;-56
2022/03/09 06:35:15;;;;;;;12.53;8.50;;;;;;;4.59;70.85;95904.50;5052776;28;20195;-58
2022/03/09 06:37:41;;;;;;;13.40;9.03;;;;;;;4.76;69.61;95904.09;5052930;28;20182;-60
2022/03/09 06:40:07;;;;;;;12.73;7.97;;;;;;;5.14;67.74;95896.03;5052251;28;20192;-47
2022/03/09 06:42:33;;;;;;;14.87;8.60;;;;;;;5.74;64.04;95893.34;5053143;28;20261;-57
2022/03/09 06:44:59;;;;;;;13.03;8.50;;;;;;;5.81;61.77;95895.44;5052730;28;20223;-61
2022/03/09 06:47:24;;;;;;;11.77;8.93;;;;;;;5.96;60.00;95903.47;5052862;28;20219;-61
2022/03/09 06:49:50;;;;;;;12.17;8.03;;;;;;;6.44;58.61;95899.19;5052400;28;20196;-60
2022/03/09 06:52:16;;;;;;;15.30;8.80;;;;;;;6.95;57.71;95897.63;5052529;28;20193;-61
2022/03/09 06:54:42;;;;;;;10.93;8.33;;;;;;;7.04;54.56;95898.16;5053198;28;20221;-61
2022/03/09 06:57:08;;;;;;;12.50;8.50;;;;;;;7.17;53.32;95888.63;5052557;28;20185;-61
2022/03/09 06:59:33;;;;;;;12.20;9.27;;;;;;;7.49;53.96;95895.22;5052624;28;20272;-58
2022/03/09 07:01:58;;;;;;;16.27;8.83;;;;;;;7.77;52.54;95895.56;5052896;28;20220;-60
2022/03/09 07:04:24;;;;;;;16.27;9.80;;;;;;;7.49;50.83;95900.66;5053022;28;20208;-61
2022/03/09 07:06:49;;;;;;;12.67;9.33;;;;;;;8.21;50.99;95907.28;5052538;28;20186;-61
2022/03/09 07:09:14;;;;;;;11.83;8.77;;;;;;;8.97;47.92;95897.34;5052679;28;20201;-61
2022/03/09 07:11:41;;;;;;;11.57;8.10;;;;;;;9.36;45.60;95893.66;5052455;28;20208;-61
2022/03/09 07:14:07;;;;;;;16.03;9.37;;;;;;;9.46;44.68;95901.09;5052092;28;20178;-62
2022/03/09 07:16:32;;;;;;;9.80;8.00;;;;;;;9.25;44.42;95906.47;5052332;28;20182;-62
2022/03/09 07:18:57;;;;;;;15.60;8.60;;;;;;;9.44;44.35;95894.47;5052338;28;20188;-50
2022/03/09 07:21:23;;;;;;;13.10;9.10;;;;;;;10.03;42.26;95900.09;5052719;28;20186;-62
2022/03/09 07:23:48;;;;;;;10.50;8.57;;;;;;;10.50;41.20;95906.44;5052367;28;20208;-61
2022/03/09 07:26:14;;;;;;;12.33;8.70;;;;;;;10.02;42.17;95900.50;5052765;28;20239;-62
2022/03/09 07:28:39;;;;;;;10.00;8.60;;;;;;;10.23;42.55;95897.06;5052517;28;20243;-62
2022/03/09 07:31:05;;;;;;;12.63;9.07;;;;;;;10.50;41.09;95903.72;5052371;28;20210;-62
2022/03/09 07:33:30;;;;;;;13.23;9.50;;;;;;;11.05;39.71;95915.78;5052292;28;20181;-62
2022/03/09 07:35:56;;;;;;;10.13;9.13;;;;;;;10.77;39.11;95915.78;5052060;28;20197;-52
2022/03/09 07:38:22;;;;;;;12.43;8.77;;;;;;;10.90;40.30;95914.22;5052113;28;20189;-55
2022/03/09 07:40:47;;;;;;;12.10;9.87;;;;;;;11.97;39.16;95914.31;5052530;28;20252;-54
2022/03/09 07:43:12;;;;;;;10.83;9.17;;;;;;;12.19;36.95;95913.00;5052329;28;20189;-54
2022/03/09 07:45:38;;;;;;;12.03;9.07;;;;;;;12.55;36.60;95914.34;5052174;28;20194;-55
2022/03/09 07:48:04;;;;;;;15.60;9.10;;;;;;;12.42;36.21;95921.50;5053005;28;20182;-54
2022/03/09 07:50:30;;;;;;;14.70;10.77;;;;;;;12.91;35.28;95926.59;5052009;28;20189;-52
2022/03/09 07:52:56;;;;;;;12.47;9.87;;;;;;;13.00;34.14;95924.16;5055385;28;20185;-55
2022/03/09 07:55:21;;;;;;;11.43;9.10;;;;;;;12.93;34.57;95929.72;5055697;28;20178;-65
2022/03/09 07:57:47;;;;;;;12.30;9.80;;;;;;;14.23;33.73;95931.03;5055476;28;20196;-59
2022/03/09 08:00:13;;;;;;;11.30;9.40;;;;;;;14.51;32.41;95927.91;5055356;28;20202;-59
2022/03/09 08:02:40;;;;;;;10.50;9.03;;;;;;;14.61;31.15;95924.22;5055557;28;20213;-59
2022/03/09 08:05:06;;;;;;;11.60;9.70;;;;;;;15.02;30.57;95925.53;5055471;28;20178;-59
2022/03/09 08:07:31;;;;;;;10.47;9.00;;;;;;;14.99;30.69;95931.84;5055212;28;20190;-59
2022/03/09 08:09:57;;;;;;;12.70;9.67;;;;;;;12.75;33.66;95940.03;5055702;28;20270;-59
2022/03/09 08:12:22;;;;;;;13.30;9.90;;;;;;;14.01;32.62;95944.25;5055266;28;20177;-67
2022/03/09 08:14:48;;;;;;;15.97;10.17;;;;;;;14.36;31.58;95940.28;5055435;28;20221;-51
2022/03/09 08:17:13;;;;;;;12.90;9.53;;;;;;;14.24;32.28;95941.63;5054909;28;20208;-50
2022/03/09 08:19:38;;;;;;;14.07;10.03;;;;;;;14.63;31.17;95941.84;5055085;28;20205;-47
2022/03/09 08:22:04;;;;;;;11.80;9.60;;;;;;;14.10;32.31;95947.28;5055034;28;20166;-47
2022/03/09 08:24:29;;;;;;;12.33;9.57;;;;;;;14.83;30.85;95948.22;5055271;28;20221;-47
2022/03/09 08:26:55;;;;;;;11.57;10.00;;;;;;;14.31;31.88;95952.50;5054715;28;20189;-46
2022/03/09 08:29:20;;;;;;;12.37;9.63;;;;;;;13.77;32.05;95956.28;5055932;28;20185;-48
2022/03/09 08:31:45;;;;;;;10.83;9.37;;;;;;;13.83;32.23;95962.91;5055029;28;20236;-62
2022/03/09 08:34:11;;;;;;;9.67;8.67;;;;;;;15.15;33.58;95950.47;5055566;28;20189;-58
2022/03/09 08:36:36;;;;;;;9.97;8.97;;;;;;;15.34;30.37;95950.50;5054620;28;20198;-58
2022/03/09 08:39:02;;;;;;;11.03;9.47;;;;;;;14.78;30.77;95951.44;5054795;28;20211;-58
2022/03/09 08:41:29;;;;;;;14.27;9.90;;;;;;;16.10;29.83;95950.25;5054831;28;20182;-52
2022/03/09 08:43:54;;;;;;;10.80;9.70;;;;;;;16.24;28.80;95947.19;5054804;28;20182;-52
2022/03/09 08:46:20;;;;;;;10.93;9.47;;;;;;;16.14;29.02;95950.19;5054905;28;20347;-53
2022/03/09 08:48:48;;;;;;;10.47;9.30;;;;;;;16.04;28.83;95951.97;5054910;28;20185;-46
2022/03/09 08:51:13;;;;;;;9.73;8.73;;;;;;;16.27;28.47;95949.13;5054834;28;20189;-47
2022/03/09 08:53:40;;;;;;;11.10;10.00;;;;;;;16.19;28.60;95953.22;5054755;28;20190;-64
2022/03/09 08:56:07;;;;;;;12.30;10.37;;;;;;;15.71;29.29;95953.00;5055081;28;20182;-65
2022/03/09 08:58:37;;;;;;;11.87;10.67;;;;;;;15.66;29.67;95950.72;5054590;28;20194;-64
2022/03/09 09:01:04;;;;;;;11.60;9.97;;;;;;;15.54;29.85;95950.56;5054402;28;20233;-65
2022/03/09 09:03:29;;;;;;;11.23;9.93;;;;;;;15.57;29.29;95939.50;5053695;28;20202;-66
2022/03/09 09:05:55;;;;;;;11.13;9.37;;;;;;;16.04;28.14;95946.47;5054723;28;20190;-65
2022/03/09 09:08:20;;;;;;;10.87;9.40;;;;;;;16.32;28.14;95937.56;5054560;28;20181;-60
2022/03/09 09:10:46;;;;;;;12.37;9.17;;;;;;;15.09;28.18;95941.91;5054173;28;20198;-61
2022/03/09 09:13:11;;;;;;;10.70;8.73;;;;;;;15.57;27.64;95942.25;5054865;28;20181;-60
2022/03/09 09:15:38;;;;;;;9.73;8.73;;;;;;;16.50;26.81;95933.69;5054429;28;20186;-59
2022/03/09 09:18:05;;;;;;;11.33;8.57;;;;;;;16.29;26.62;95935.66;5054575;28;20178;-59
2022/03/09 09:20:31;;;;;;;11.17;9.10;;;;;;;16.26;27.17;95942.06;5054155;28;20210;-59
2022/03/09 09:22:57;;;;;;;10.20;8.37;;;;;;;16.57;26.85;95934.28;5054162;28;20189;-60
2022/03/09 09:25:24;;;;;;;10.90;9.13;;;;;;;17.38;25.91;95937.88;5054313;28;20189;-56
2022/03/09 09:27:50;;;;;;;10.67;8.83;;;;;;;17.39;24.84;95933.88;5054562;28;20284;-65
2022/03/09 09:30:16;;;;;;;10.07;8.60;;;;;;;17.08;24.97;95936.22;5054634;28;20281;-45
2022/03/09 09:32:41;;;;;;;12.13;8.50;;;;;;;16.84;25.55;95936.84;5054098;28;20213;-44
2022/03/09 09:35:08;;;;;;;11.23;9.17;;;;;;;16.66;25.18;95941.97;5054415;28;20209;-45
2022/03/09 09:37:33;;;;;;;10.20;8.70;;;;;;;16.91;25.20;95939.44;5054340;28;20273;-45
2022/03/09 09:39:58;;;;;;;10.00;9.00;;;;;;;16.69;25.96;95930.09;5053938;28;20297;-45
2022/03/09 09:42:31;;;;;;;11.13;9.07;;;;;;;16.66;25.89;95936.47;5053948;28;20194;-46
2022/03/09 09:45:00;;;;;;;9.50;8.53;;;;;;;15.34;27.25;95945.00;5053684;28;20265;-66
2022/03/09 09:47:29;;;;;;;11.20;8.57;;;;;;;15.80;26.94;95939.44;5053598;28;20190;-54
2022/03/09 09:49:58;;;;;;;10.17;9.17;;;;;;;15.98;27.00;95939.88;5054667;28;20201;-55
2022/03/09 09:52:28;;;;;;;10.63;8.50;;;;;;;16.50;26.57;95939.22;5053745;28;20174;-54
2022/03/09 09:54:56;;;;;;;9.97;8.53;;;;;;;16.10;26.42;95939.22;5053542;28;20189;-55
2022/03/09 09:57:23;;;;;;;11.03;8.27;;;;;;;15.92;26.83;95933.28;5053697;28;20177;-55
2022/03/09 09:59:50;;;;;;;11.33;8.03;;;;;;;16.46;25.40;95924.72;5053943;28;20210;-52
2022/03/09 10:02:16;;;;;;;10.27;8.70;;;;;;;16.35;25.81;95922.94;5053450;28;20201;-45
2022/03/09 10:04:42;;;;;;;11.23;9.07;;;;;;;16.52;25.94;95925.75;5053956;28;20257;-49
2022/03/09 10:07:08;;;;;;;10.40;8.27;;;;;;;16.76;25.41;95930.72;5053499;28;20198;-59
2022/03/09 10:09:38;;;;;;;11.70;7.57;;;;;;;16.96;24.96;95925.09;5053629;28;20185;-59
2022/03/09 10:12:06;;;;;;;9.93;7.73;;;;;;;17.40;24.75;95924.38;5053684;28;20214;-59
2022/03/09 10:14:49;;;;;;;8.77;7.87;;;;;;;17.56;24.41;95927.16;5052763;28;20212;-58
2022/03/09 10:17:14;;;;;;;10.03;8.27;;;;;;;16.53;25.32;95927.31;5053585;28;20196;-59
2022/03/09 10:19:43;;;;;;;11.17;8.20;;;;;;;16.23;25.25;95931.09;5054124;28;20206;-59
2022/03/09 10:22:23;;;;;;;9.80;8.30;;;;;;;16.24;25.50;95927.91;5053293;28;20182;-59
2022/03/09 10:24:49;;;;;;;9.63;8.07;;;;;;;16.36;24.96;95918.97;5052741;28;20276;-55
2022/03/09 10:27:33;;;;;;;8.90;8.00;;;;;;;16.62;25.09;95922.78;5052079;28;20208;-49
2022/03/09 10:29:59;;;;;;;11.03;7.87;;;;;;;17.11;24.41;95923.56;5053085;28;20208;-51
2022/03/09 10:32:45;;;;;;;9.57;8.10;;;;;;;17.17;24.27;95921.81;5052957;28;20197;-53
2022/03/09 10:35:13;;;;;;;12.23;8.00;;;;;;;17.07;24.38;95925.63;5052768;28;20216;-50
2022/03/09 10:37:40;;;;;;;11.17;8.80;;;;;;;17.52;24.29;95920.97;5053616;28;20220;-49
2022/03/09 10:40:11;;;;;;;11.23;8.80;;;;;;;17.75;24.00;95917.94;5053040;28;20216;-48
2022/03/09 10:42:37;;;;;;;9.37;7.37;;;;;;;17.75;23.62;95923.47;5053002;28;20188;-59
2022/03/09 10:45:09;;;;;;;10.20;8.57;;;;;;;17.48;24.10;95914.75;5053004;28;20189;-59
2022/03/09 10:47:37;;;;;;;9.83;8.50;;;;;;;16.65;24.24;95921.13;5053117;28;20178;-59
2022/03/09 10:50:24;;;;;;;10.57;8.07;;;;;;;16.97;24.17;95923.91;5052923;28;20208;-59
2022/03/09 10:52:55;;;;;;;10.67;8.73;;;;;;;17.30;24.07;95922.69;5053297;28;20221;-59
2022/03/09 10:55:36;;;;;;;14.57;8.20;;;;;;;17.62;24.04;95914.34;5052804;28;20177;-59
2022/03/09 10:58:21;;;;;;;10.37;7.73;;;;;;;18.70;23.18;95907.66;5052630;28;20186;-55
2022/03/09 11:00:48;;;;;;;9.00;7.90;;;;;;;18.93;23.17;95908.09;5052553;28;20217;-61
2022/03/09 11:03:25;;;;;;;11.20;8.17;;;;;;;18.09;22.87;95909.88;5052449;28;20205;-63
2022/03/09 11:06:01;;;;;;;9.10;7.20;;;;;;;17.09;23.05;95903.91;5052607;28;20195;-62
2022/03/09 11:08:29;;;;;;;9.13;7.60;;;;;;;17.09;23.41;95904.69;5052515;28;20243;-63
2022/03/09 11:10:55;;;;;;;8.10;6.97;;;;;;;17.28;22.91;95906.56;5053484;28;20213;-62
2022/03/09 11:13:22;;;;;;;8.43;7.10;;;;;;;16.79;23.38;95902.25;5052544;28;20178;-62
2022/03/09 11:15:47;;;;;;;8.20;7.30;;;;;;;16.91;23.81;95898.03;5053091;28;20181;-53
2022/03/09 11:18:19;;;;;;;9.37;7.90;;;;;;;17.46;22.92;95898.63;5053014;28;20276;-55